sensor_id;sensor_type;location;lat;lon;timestamp;P1;P2;P0
73305;PMS5003;61530;51.158;0.880;2023-05-16T00:00:14;5;5;2
73305;PMS5003;61530;51.158;0.880;2023-05-16T00:01:18;4;4;4
73305;PMS5003;61530;51.158;0.880;2023-05-16T00:02:21;4;4;4
73305;PMS5003;61530;51.158;0.880;2023-05-16T00:03:25;8;8;2
73305;PMS5003;61530;51.158;0.880;2023-05-16T00:04:30;5;5;3
73305;PMS5003;61530;51.158;0.880;2023-05-16T00:05:34;3;3;2
73305;PMS5003;61530;51.158;0.880;2023-05-16T00:06:37;5;3;3
73305;PMS5003;61530;51.158;0.880;2023-05-16T00:07:41;7;5;3
73305;PMS5003;61530;51.158;0.880;2023-05-16T00:08:46;4;4;2
73305;PMS5003;61530;51.158;0.880;2023-05-16T00:09:50;6;6;3
73305;PMS5003;61530;51.158;0.880;2023-05-16T00:10:53;4;4;3
73305;PMS5003;61530;51.158;0.880;2023-05-16T00:11:57;8;6;4
73305;PMS5003;61530;51.158;0.880;2023-05-16T00:13:02;4;4;3
73305;PMS5003;61530;51.158;0.880;2023-05-16T00:14:06;6;4;3
73305;PMS5003;61530;51.158;0.880;2023-05-16T00:15:10;6;3;2
73305;PMS5003;61530;51.158;0.880;2023-05-16T00:16:12;4;4;2
73305;PMS5003;61530;51.158;0.880;2023-05-16T00:17:18;6;5;2
73305;PMS5003;61530;51.158;0.880;2023-05-16T00:18:22;7;4;3
73305;PMS5003;61530;51.158;0.880;2023-05-16T00:19:25;6;5;2
73305;PMS5003;61530;51.158;0.880;2023-05-16T00:20:29;3;3;2
73305;PMS5003;61530;51.158;0.880;2023-05-16T00:21:34;5;4;2
73305;PMS5003;61530;51.158;0.880;2023-05-16T00:22:37;4;4;2
73305;PMS5003;61530;51.158;0.880;2023-05-16T00:23:41;7;6;3
73305;PMS5003;61530;51.158;0.880;2023-05-16T00:24:44;6;5;3
73305;PMS5003;61530;51.158;0.880;2023-05-16T00:25:50;5;4;3
73305;PMS5003;61530;51.158;0.880;2023-05-16T00:26:54;5;4;3
73305;PMS5003;61530;51.158;0.880;2023-05-16T00:27:57;7;4;3
73305;PMS5003;61530;51.158;0.880;2023-05-16T00:29:01;5;5;3
73305;PMS5003;61530;51.158;0.880;2023-05-16T00:30:07;6;4;3
73305;PMS5003;61530;51.158;0.880;2023-05-16T00:31:09;5;4;3
73305;PMS5003;61530;51.158;0.880;2023-05-16T00:32:13;4;4;2
73305;PMS5003;61530;51.158;0.880;2023-05-16T00:33:16;5;5;3
73305;PMS5003;61530;51.158;0.880;2023-05-16T00:34:22;6;3;2
73305;PMS5003;61530;51.158;0.880;2023-05-16T00:35:26;6;6;3
73305;PMS5003;61530;51.158;0.880;2023-05-16T00:36:29;4;4;2
73305;PMS5003;61530;51.158;0.880;2023-05-16T00:37:33;4;3;2
73305;PMS5003;61530;51.158;0.880;2023-05-16T00:38:38;7;5;3
73305;PMS5003;61530;51.158;0.880;2023-05-16T00:39:41;5;4;2
73305;PMS5003;61530;51.158;0.880;2023-05-16T00:40:45;3;3;2
73305;PMS5003;61530;51.158;0.880;2023-05-16T00:41:48;5;5;3
73305;PMS5003;61530;51.158;0.880;2023-05-16T00:42:54;5;5;3
73305;PMS5003;61530;51.158;0.880;2023-05-16T00:43:58;5;5;3
73305;PMS5003;61530;51.158;0.880;2023-05-16T00:45:01;10;5;3
73305;PMS5003;61530;51.158;0.880;2023-05-16T00:46:05;4;3;3
73305;PMS5003;61530;51.158;0.880;2023-05-16T00:47:10;3;3;3
73305;PMS5003;61530;51.158;0.880;2023-05-16T00:48:13;7;6;3
73305;PMS5003;61530;51.158;0.880;2023-05-16T00:49:17;9;6;4
73305;PMS5003;61530;51.158;0.880;2023-05-16T00:50:20;6;6;3
73305;PMS5003;61530;51.158;0.880;2023-05-16T00:51:26;7;6;4
73305;PMS5003;61530;51.158;0.880;2023-05-16T00:52:30;3;3;2
73305;PMS5003;61530;51.158;0.880;2023-05-16T00:53:33;4;4;3
73305;PMS5003;61530;51.158;0.880;2023-05-16T00:54:37;4;3;2
73305;PMS5003;61530;51.158;0.880;2023-05-16T00:55:42;5;5;3
73305;PMS5003;61530;51.158;0.880;2023-05-16T00:56:45;7;5;2
73305;PMS5003;61530;51.158;0.880;2023-05-16T00:57:49;4;4;3
73305;PMS5003;61530;51.158;0.880;2023-05-16T00:58:52;4;4;3
73305;PMS5003;61530;51.158;0.880;2023-05-16T00:59:58;5;5;3
73305;PMS5003;61530;51.158;0.880;2023-05-16T01:01:02;5;3;2
73305;PMS5003;61530;51.158;0.880;2023-05-16T01:02:05;6;4;2
73305;PMS5003;61530;51.158;0.880;2023-05-16T01:03:09;10;4;3
73305;PMS5003;61530;51.158;0.880;2023-05-16T01:04:14;7;4;3
73305;PMS5003;61530;51.158;0.880;2023-05-16T01:05:18;4;4;2
73305;PMS5003;61530;51.158;0.880;2023-05-16T01:06:21;4;4;2
73305;PMS5003;61530;51.158;0.880;2023-05-16T01:07:24;4;4;3
73305;PMS5003;61530;51.158;0.880;2023-05-16T01:08:30;6;4;2
73305;PMS5003;61530;51.158;0.880;2023-05-16T01:09:34;4;4;3
73305;PMS5003;61530;51.158;0.880;2023-05-16T01:10:38;7;5;2
73305;PMS5003;61530;51.158;0.880;2023-05-16T01:11:42;4;4;3
73305;PMS5003;61530;51.158;0.880;2023-05-16T01:12:48;10;7;3
73305;PMS5003;61530;51.158;0.880;2023-05-16T01:13:53;9;6;3
73305;PMS5003;61530;51.158;0.880;2023-05-16T01:14:55;7;5;3
73305;PMS5003;61530;51.158;0.880;2023-05-16T01:15:58;3;3;2
73305;PMS5003;61530;51.158;0.880;2023-05-16T01:17:05;5;4;3
73305;PMS5003;61530;51.158;0.880;2023-05-16T01:18:07;4;4;3
73305;PMS5003;61530;51.158;0.880;2023-05-16T01:19:12;6;3;2
73305;PMS5003;61530;51.158;0.880;2023-05-16T01:20:16;6;5;3
73305;PMS5003;61530;51.158;0.880;2023-05-16T01:21:20;9;6;3
73305;PMS5003;61530;51.158;0.880;2023-05-16T01:22:27;4;4;2
73305;PMS5003;61530;51.158;0.880;2023-05-16T01:23:32;5;5;3
73305;PMS5003;61530;51.158;0.880;2023-05-16T01:24:32;5;5;4
73305;PMS5003;61530;51.158;0.880;2023-05-16T01:25:38;4;4;3
73305;PMS5003;61530;51.158;0.880;2023-05-16T01:26:38;7;5;2
73305;PMS5003;61530;51.158;0.880;2023-05-16T01:27:41;10;6;3
73305;PMS5003;61530;51.158;0.880;2023-05-16T01:28:45;10;9;3
73305;PMS5003;61530;51.158;0.880;2023-05-16T01:29:54;4;3;2
73305;PMS5003;61530;51.158;0.880;2023-05-16T01:30:53;5;5;3
73305;PMS5003;61530;51.158;0.880;2023-05-16T01:31:57;10;6;4
73305;PMS5003;61530;51.158;0.880;2023-05-16T01:33:00;7;5;3
73305;PMS5003;61530;51.158;0.880;2023-05-16T01:34:06;9;5;3
73305;PMS5003;61530;51.158;0.880;2023-05-16T01:35:10;5;5;3
73305;PMS5003;61530;51.158;0.880;2023-05-16T01:36:16;7;6;4
73305;PMS5003;61530;51.158;0.880;2023-05-16T01:37:18;6;5;3
73305;PMS5003;61530;51.158;0.880;2023-05-16T01:38:24;4;4;2
73305;PMS5003;61530;51.158;0.880;2023-05-16T01:39:31;4;4;3
73305;PMS5003;61530;51.158;0.880;2023-05-16T01:40:30;6;4;3
73305;PMS5003;61530;51.158;0.880;2023-05-16T01:41:34;5;4;3
73305;PMS5003;61530;51.158;0.880;2023-05-16T01:42:38;5;5;3
73305;PMS5003;61530;51.158;0.880;2023-05-16T01:43:42;6;5;3
73305;PMS5003;61530;51.158;0.880;2023-05-16T01:44:53;6;6;4
73305;PMS5003;61530;51.158;0.880;2023-05-16T01:45:50;4;4;3
73305;PMS5003;61530;51.158;0.880;2023-05-16T01:46:55;9;6;3
73305;PMS5003;61530;51.158;0.880;2023-05-16T01:47:59;4;4;3
73305;PMS5003;61530;51.158;0.880;2023-05-16T01:49:04;4;4;3
73305;PMS5003;61530;51.158;0.880;2023-05-16T01:50:07;4;4;3
73305;PMS5003;61530;51.158;0.880;2023-05-16T01:51:10;6;4;3
73305;PMS5003;61530;51.158;0.880;2023-05-16T01:52:15;7;6;4
73305;PMS5003;61530;51.158;0.880;2023-05-16T01:53:18;10;9;5
73305;PMS5003;61530;51.158;0.880;2023-05-16T01:54:21;7;7;4
73305;PMS5003;61530;51.158;0.880;2023-05-16T01:55:29;6;6;4
73305;PMS5003;61530;51.158;0.880;2023-05-16T01:56:29;6;6;5
73305;PMS5003;61530;51.158;0.880;2023-05-16T01:57:33;7;7;5
73305;PMS5003;61530;51.158;0.880;2023-05-16T01:58:36;13;11;9
73305;PMS5003;61530;51.158;0.880;2023-05-16T01:59:43;11;11;7
73305;PMS5003;61530;51.158;0.880;2023-05-16T02:00:46;11;11;9
73305;PMS5003;61530;51.158;0.880;2023-05-16T02:01:51;12;11;7
73305;PMS5003;61530;51.158;0.880;2023-05-16T02:02:53;12;11;8
73305;PMS5003;61530;51.158;0.880;2023-05-16T02:03:58;9;9;6
73305;PMS5003;61530;51.158;0.880;2023-05-16T02:05:02;11;11;10
73305;PMS5003;61530;51.158;0.880;2023-05-16T02:06:05;12;12;9
73305;PMS5003;61530;51.158;0.880;2023-05-16T02:07:08;12;12;7
73305;PMS5003;61530;51.158;0.880;2023-05-16T02:08:14;13;11;10
73305;PMS5003;61530;51.158;0.880;2023-05-16T02:09:18;12;12;7
73305;PMS5003;61530;51.158;0.880;2023-05-16T02:10:21;12;11;7
73305;PMS5003;61530;51.158;0.880;2023-05-16T02:11:25;12;12;9
73305;PMS5003;61530;51.158;0.880;2023-05-16T02:12:30;11;10;7
73305;PMS5003;61530;51.158;0.880;2023-05-16T02:13:33;11;11;9
73305;PMS5003;61530;51.158;0.880;2023-05-16T02:14:37;11;9;6
73305;PMS5003;61530;51.158;0.880;2023-05-16T02:15:40;13;12;7
73305;PMS5003;61530;51.158;0.880;2023-05-16T02:16:47;10;10;7
73305;PMS5003;61530;51.158;0.880;2023-05-16T02:17:50;11;11;9
73305;PMS5003;61530;51.158;0.880;2023-05-16T02:18:53;11;11;9
73305;PMS5003;61530;51.158;0.880;2023-05-16T02:19:57;15;12;9
73305;PMS5003;61530;51.158;0.880;2023-05-16T02:21:02;15;14;11
73305;PMS5003;61530;51.158;0.880;2023-05-16T02:22:05;17;14;11
73305;PMS5003;61530;51.158;0.880;2023-05-16T02:23:09;18;17;11
73305;PMS5003;61530;51.158;0.880;2023-05-16T02:24:12;15;13;11
73305;PMS5003;61530;51.158;0.880;2023-05-16T02:25:18;17;17;12
73305;PMS5003;61530;51.158;0.880;2023-05-16T02:26:22;14;14;12
73305;PMS5003;61530;51.158;0.880;2023-05-16T02:27:25;14;14;12
73305;PMS5003;61530;51.158;0.880;2023-05-16T02:28:29;12;12;6
73305;PMS5003;61530;51.158;0.880;2023-05-16T02:29:34;14;13;6
73305;PMS5003;61530;51.158;0.880;2023-05-16T02:30:37;18;17;12
73305;PMS5003;61530;51.158;0.880;2023-05-16T02:31:41;18;17;13
73305;PMS5003;61530;51.158;0.880;2023-05-16T02:32:44;18;17;13
73305;PMS5003;61530;51.158;0.880;2023-05-16T02:33:50;18;18;14
73305;PMS5003;61530;51.158;0.880;2023-05-16T02:34:55;21;20;15
73305;PMS5003;61530;51.158;0.880;2023-05-16T02:35:57;18;18;14
73305;PMS5003;61530;51.158;0.880;2023-05-16T02:37:01;20;13;11
73305;PMS5003;61530;51.158;0.880;2023-05-16T02:38:06;17;17;13
73305;PMS5003;61530;51.158;0.880;2023-05-16T02:39:09;21;18;14
73305;PMS5003;61530;51.158;0.880;2023-05-16T02:40:13;21;19;14
73305;PMS5003;61530;51.158;0.880;2023-05-16T02:41:16;17;15;12
73305;PMS5003;61530;51.158;0.880;2023-05-16T02:42:22;20;18;14
73305;PMS5003;61530;51.158;0.880;2023-05-16T02:43:26;18;17;13
73305;PMS5003;61530;51.158;0.880;2023-05-16T02:44:29;17;17;13
73305;PMS5003;61530;51.158;0.880;2023-05-16T02:45:33;21;19;15
73305;PMS5003;61530;51.158;0.880;2023-05-16T02:46:38;14;11;6
73305;PMS5003;61530;51.158;0.880;2023-05-16T02:47:41;19;18;12
73305;PMS5003;61530;51.158;0.880;2023-05-16T02:48:45;18;14;13
73305;PMS5003;61530;51.158;0.880;2023-05-16T02:49:48;19;17;12
73305;PMS5003;61530;51.158;0.880;2023-05-16T02:50:54;19;18;14
73305;PMS5003;61530;51.158;0.880;2023-05-16T02:51:58;13;12;7
73305;PMS5003;61530;51.158;0.880;2023-05-16T02:53:01;24;19;12
73305;PMS5003;61530;51.158;0.880;2023-05-16T02:54:05;15;14;13
73305;PMS5003;61530;51.158;0.880;2023-05-16T02:55:10;21;17;12
73305;PMS5003;61530;51.158;0.880;2023-05-16T02:56:14;20;17;13
73305;PMS5003;61530;51.158;0.880;2023-05-16T02:57:17;19;18;15
73305;PMS5003;61530;51.158;0.880;2023-05-16T02:58:20;17;17;14
73305;PMS5003;61530;51.158;0.880;2023-05-16T02:59:26;20;18;15
73305;PMS5003;61530;51.158;0.880;2023-05-16T03:00:30;21;20;18
73305;PMS5003;61530;51.158;0.880;2023-05-16T03:01:33;20;18;14
73305;PMS5003;61530;51.158;0.880;2023-05-16T03:02:37;21;19;15
73305;PMS5003;61530;51.158;0.880;2023-05-16T03:03:42;14;13;10
73305;PMS5003;61530;51.158;0.880;2023-05-16T03:04:45;19;19;14
73305;PMS5003;61530;51.158;0.880;2023-05-16T03:05:49;19;18;9
73305;PMS5003;61530;51.158;0.880;2023-05-16T03:06:53;18;15;11
73305;PMS5003;61530;51.158;0.880;2023-05-16T03:07:58;20;20;17
73305;PMS5003;61530;51.158;0.880;2023-05-16T03:09:02;28;28;21
73305;PMS5003;61530;51.158;0.880;2023-05-16T03:10:05;18;17;10
73305;PMS5003;61530;51.158;0.880;2023-05-16T03:11:09;21;21;18
73305;PMS5003;61530;51.158;0.880;2023-05-16T03:12:14;26;22;20
73305;PMS5003;61530;51.158;0.880;2023-05-16T03:13:17;26;23;19
73305;PMS5003;61530;51.158;0.880;2023-05-16T03:14:21;28;26;22
73305;PMS5003;61530;51.158;0.880;2023-05-16T03:15:24;28;27;23
73305;PMS5003;61530;51.158;0.880;2023-05-16T03:16:30;29;24;21
73305;PMS5003;61530;51.158;0.880;2023-05-16T03:17:34;17;17;9
73305;PMS5003;61530;51.158;0.880;2023-05-16T03:18:37;22;20;17
73305;PMS5003;61530;51.158;0.880;2023-05-16T03:19:41;27;22;18
73305;PMS5003;61530;51.158;0.880;2023-05-16T03:20:46;30;27;23
73305;PMS5003;61530;51.158;0.880;2023-05-16T03:21:49;28;28;23
73305;PMS5003;61530;51.158;0.880;2023-05-16T03:22:53;33;29;25
73305;PMS5003;61530;51.158;0.880;2023-05-16T03:23:56;19;18;11
73305;PMS5003;61530;51.158;0.880;2023-05-16T03:25:02;28;28;23
73305;PMS5003;61530;51.158;0.880;2023-05-16T03:26:06;18;18;12
73305;PMS5003;61530;51.158;0.880;2023-05-16T03:27:09;18;18;15
73305;PMS5003;61530;51.158;0.880;2023-05-16T03:28:13;28;28;25
73305;PMS5003;61530;51.158;0.880;2023-05-16T03:29:18;22;22;14
73305;PMS5003;61530;51.158;0.880;2023-05-16T03:30:21;18;18;14
73305;PMS5003;61530;51.158;0.880;2023-05-16T03:31:25;31;31;26
73305;PMS5003;61530;51.158;0.880;2023-05-16T03:32:28;43;38;33
73305;PMS5003;61530;51.158;0.880;2023-05-16T03:33:34;45;45;43
73305;PMS5003;61530;51.158;0.880;2023-05-16T03:34:38;54;54;52
73305;PMS5003;61530;51.158;0.880;2023-05-16T03:35:41;74;71;67
73305;PMS5003;61530;51.158;0.880;2023-05-16T03:36:45;82;82;77
73305;PMS5003;61530;51.158;0.880;2023-05-16T03:37:50;31;31;25
73305;PMS5003;61530;51.158;0.880;2023-05-16T03:38:53;30;26;22
73305;PMS5003;61530;51.158;0.880;2023-05-16T03:39:57;25;25;22
73305;PMS5003;61530;51.158;0.880;2023-05-16T03:41:00;50;48;43
73305;PMS5003;61530;51.158;0.880;2023-05-16T03:42:06;65;62;59
73305;PMS5003;61530;51.158;0.880;2023-05-16T03:43:10;77;76;73
73305;PMS5003;61530;51.158;0.880;2023-05-16T03:44:13;44;43;35
73305;PMS5003;61530;51.158;0.880;2023-05-16T03:45:17;25;23;20
73305;PMS5003;61530;51.158;0.880;2023-05-16T03:46:22;40;40;35
73305;PMS5003;61530;51.158;0.880;2023-05-16T03:47:25;60;60;57
73305;PMS5003;61530;51.158;0.880;2023-05-16T03:48:29;23;23;17
73305;PMS5003;61530;51.158;0.880;2023-05-16T03:49:32;20;20;17
73305;PMS5003;61530;51.158;0.880;2023-05-16T03:50:38;43;43;38
73305;PMS5003;61530;51.158;0.880;2023-05-16T03:51:42;28;28;18
73305;PMS5003;61530;51.158;0.880;2023-05-16T03:52:45;31;31;29
73305;PMS5003;61530;51.158;0.880;2023-05-16T03:53:49;53;52;46
73305;PMS5003;61530;51.158;0.880;2023-05-16T03:54:54;74;72;68
73305;PMS5003;61530;51.158;0.880;2023-05-16T03:55:57;83;83;78
73305;PMS5003;61530;51.158;0.880;2023-05-16T03:57:01;53;51;46
73305;PMS5003;61530;51.158;0.880;2023-05-16T03:58:04;21;19;11
73305;PMS5003;61530;51.158;0.880;2023-05-16T03:59:10;29;29;25
73305;PMS5003;61530;51.158;0.880;2023-05-16T04:00:14;86;85;80
73305;PMS5003;61530;51.158;0.880;2023-05-16T04:01:17;69;67;61
73305;PMS5003;61530;51.158;0.880;2023-05-16T04:02:21;41;37;33
73305;PMS5003;61530;51.158;0.880;2023-05-16T04:03:26;60;60;58
73305;PMS5003;61530;51.158;0.880;2023-05-16T04:04:29;75;75;72
73305;PMS5003;61530;51.158;0.880;2023-05-16T04:05:33;76;76;73
73305;PMS5003;61530;51.158;0.880;2023-05-16T04:06:36;28;28;24
73305;PMS5003;61530;51.158;0.880;2023-05-16T04:07:42;61;59;54
73305;PMS5003;61530;51.158;0.880;2023-05-16T04:08:46;75;75;70
73305;PMS5003;61530;51.158;0.880;2023-05-16T04:09:49;29;29;21
73305;PMS5003;61530;51.158;0.880;2023-05-16T04:10:53;76;74;69
73305;PMS5003;61530;51.158;0.880;2023-05-16T04:11:58;26;24;14
73305;PMS5003;61530;51.158;0.880;2023-05-16T04:13:02;74;74;69
73305;PMS5003;61530;51.158;0.880;2023-05-16T04:14:05;61;61;58
73305;PMS5003;61530;51.158;0.880;2023-05-16T04:15:09;56;50;46
73305;PMS5003;61530;51.158;0.880;2023-05-16T04:16:14;35;34;27
73305;PMS5003;61530;51.158;0.880;2023-05-16T04:17:18;47;47;36
73305;PMS5003;61530;51.158;0.880;2023-05-16T04:18:21;36;35;32
73305;PMS5003;61530;51.158;0.880;2023-05-16T04:19:25;102;98;93
73305;PMS5003;61530;51.158;0.880;2023-05-16T04:20:30;25;24;17
73305;PMS5003;61530;51.158;0.880;2023-05-16T04:21:33;27;26;21
73305;PMS5003;61530;51.158;0.880;2023-05-16T04:22:37;24;24;18
73305;PMS5003;61530;51.158;0.880;2023-05-16T04:23:40;73;70;67
73305;PMS5003;61530;51.158;0.880;2023-05-16T04:24:46;32;29;22
73305;PMS5003;61530;51.158;0.880;2023-05-16T04:25:50;77;74;69
73305;PMS5003;61530;51.158;0.880;2023-05-16T04:26:53;69;68;62
73305;PMS5003;61530;51.158;0.880;2023-05-16T04:27:56;46;44;41
73305;PMS5003;61530;51.158;0.880;2023-05-16T04:29:02;33;30;28
73305;PMS5003;61530;51.158;0.880;2023-05-16T04:30:06;66;66;62
73305;PMS5003;61530;51.158;0.880;2023-05-16T04:31:09;74;69;66
73305;PMS5003;61530;51.158;0.880;2023-05-16T04:32:12;18;18;13
73305;PMS5003;61530;51.158;0.880;2023-05-16T04:33:18;44;43;40
73305;PMS5003;61530;51.158;0.880;2023-05-16T04:34:22;33;30;27
73305;PMS5003;61530;51.158;0.880;2023-05-16T04:35:25;59;59;56
73305;PMS5003;61530;51.158;0.880;2023-05-16T04:36:28;74;74;72
73305;PMS5003;61530;51.158;0.880;2023-05-16T04:37:34;19;19;14
73305;PMS5003;61530;51.158;0.880;2023-05-16T04:38:37;11;11;6
73305;PMS5003;61530;51.158;0.880;2023-05-16T04:39:41;13;12;9
73305;PMS5003;61530;51.158;0.880;2023-05-16T04:40:44;12;10;8
73305;PMS5003;61530;51.158;0.880;2023-05-16T04:41:50;13;10;6
73305;PMS5003;61530;51.158;0.880;2023-05-16T04:42:54;13;12;8
73305;PMS5003;61530;51.158;0.880;2023-05-16T04:43:57;12;11;6
73305;PMS5003;61530;51.158;0.880;2023-05-16T04:45:01;24;22;14
73305;PMS5003;61530;51.158;0.880;2023-05-16T04:46:06;25;25;17
73305;PMS5003;61530;51.158;0.880;2023-05-16T04:47:09;85;84;78
73305;PMS5003;61530;51.158;0.880;2023-05-16T04:48:13;46;44;42
73305;PMS5003;61530;51.158;0.880;2023-05-16T04:49:16;57;55;51
73305;PMS5003;61530;51.158;0.880;2023-05-16T04:50:22;10;10;6
73305;PMS5003;61530;51.158;0.880;2023-05-16T04:51:26;99;96;91
73305;PMS5003;61530;51.158;0.880;2023-05-16T04:52:29;77;72;68
73305;PMS5003;61530;51.158;0.880;2023-05-16T04:53:33;53;52;46
73305;PMS5003;61530;51.158;0.880;2023-05-16T04:54:38;36;36;32
73305;PMS5003;61530;51.158;0.880;2023-05-16T04:55:41;26;25;13
73305;PMS5003;61530;51.158;0.880;2023-05-16T04:56:45;29;27;22
73305;PMS5003;61530;51.158;0.880;2023-05-16T04:57:48;70;69;64
73305;PMS5003;61530;51.158;0.880;2023-05-16T04:58:54;45;41;35
73305;PMS5003;61530;51.158;0.880;2023-05-16T04:59:58;33;28;24
73305;PMS5003;61530;51.158;0.880;2023-05-16T05:01:01;37;36;31
73305;PMS5003;61530;51.158;0.880;2023-05-16T05:02:04;79;79;75
73305;PMS5003;61530;51.158;0.880;2023-05-16T05:03:10;18;17;12
73305;PMS5003;61530;51.158;0.880;2023-05-16T05:04:13;34;30;22
73305;PMS5003;61530;51.158;0.880;2023-05-16T05:05:17;84;84;81
73305;PMS5003;61530;51.158;0.880;2023-05-16T05:06:20;45;44;37
73305;PMS5003;61530;51.158;0.880;2023-05-16T05:07:26;62;61;56
73305;PMS5003;61530;51.158;0.880;2023-05-16T05:08:30;73;70;66
73305;PMS5003;61530;51.158;0.880;2023-05-16T05:09:33;25;22;14
73305;PMS5003;61530;51.158;0.880;2023-05-16T05:10:36;23;23;18
73305;PMS5003;61530;51.158;0.880;2023-05-16T05:11:42;37;34;27
73305;PMS5003;61530;51.158;0.880;2023-05-16T05:12:45;43;40;35
73305;PMS5003;61530;51.158;0.880;2023-05-16T05:13:49;39;39;36
73305;PMS5003;61530;51.158;0.880;2023-05-16T05:14:52;39;39;36
73305;PMS5003;61530;51.158;0.880;2023-05-16T05:15:58;37;36;31
73305;PMS5003;61530;51.158;0.880;2023-05-16T05:17:02;34;33;26
73305;PMS5003;61530;51.158;0.880;2023-05-16T05:18:05;25;23;19
73305;PMS5003;61530;51.158;0.880;2023-05-16T05:19:08;21;20;11
73305;PMS5003;61530;51.158;0.880;2023-05-16T05:20:14;25;25;19
73305;PMS5003;61530;51.158;0.880;2023-05-16T05:21:17;30;28;23
73305;PMS5003;61530;51.158;0.880;2023-05-16T05:22:21;21;18;10
73305;PMS5003;61530;51.158;0.880;2023-05-16T05:23:24;25;25;20
73305;PMS5003;61530;51.158;0.880;2023-05-16T05:24:30;31;29;24
73305;PMS5003;61530;51.158;0.880;2023-05-16T05:25:34;28;28;26
73305;PMS5003;61530;51.158;0.880;2023-05-16T05:26:37;23;21;11
73305;PMS5003;61530;51.158;0.880;2023-05-16T05:27:41;26;24;20
73305;PMS5003;61530;51.158;0.880;2023-05-16T05:28:47;24;23;19
73305;PMS5003;61530;51.158;0.880;2023-05-16T05:29:49;21;21;15
73305;PMS5003;61530;51.158;0.880;2023-05-16T05:30:53;23;21;16
73305;PMS5003;61530;51.158;0.880;2023-05-16T05:31:56;20;20;16
73305;PMS5003;61530;51.158;0.880;2023-05-16T05:33:02;22;19;14
73305;PMS5003;61530;51.158;0.880;2023-05-16T05:34:06;19;16;12
73305;PMS5003;61530;51.158;0.880;2023-05-16T05:35:09;20;18;9
73305;PMS5003;61530;51.158;0.880;2023-05-16T05:36:13;20;20;11
73305;PMS5003;61530;51.158;0.880;2023-05-16T05:37:18;16;14;9
73305;PMS5003;61530;51.158;0.880;2023-05-16T05:38:22;16;15;10
73305;PMS5003;61530;51.158;0.880;2023-05-16T05:39:25;13;11;9
73305;PMS5003;61530;51.158;0.880;2023-05-16T05:40:28;13;11;6
73305;PMS5003;61530;51.158;0.880;2023-05-16T05:41:34;13;11;9
73305;PMS5003;61530;51.158;0.880;2023-05-16T05:42:38;12;12;9
73305;PMS5003;61530;51.158;0.880;2023-05-16T05:43:41;14;13;9
73305;PMS5003;61530;51.158;0.880;2023-05-16T05:44:45;13;13;9
73305;PMS5003;61530;51.158;0.880;2023-05-16T05:45:50;16;14;10
73305;PMS5003;61530;51.158;0.880;2023-05-16T05:46:53;15;14;7
73305;PMS5003;61530;51.158;0.880;2023-05-16T05:47:57;13;11;6
73305;PMS5003;61530;51.158;0.880;2023-05-16T05:49:00;12;12;7
73305;PMS5003;61530;51.158;0.880;2023-05-16T05:50:06;10;10;6
73305;PMS5003;61530;51.158;0.880;2023-05-16T05:51:10;13;10;5
73305;PMS5003;61530;51.158;0.880;2023-05-16T05:52:13;8;8;6
73305;PMS5003;61530;51.158;0.880;2023-05-16T05:53:16;12;12;6
73305;PMS5003;61530;51.158;0.880;2023-05-16T05:54:22;11;11;7
73305;PMS5003;61530;51.158;0.880;2023-05-16T05:55:25;10;8;6
73305;PMS5003;61530;51.158;0.880;2023-05-16T05:56:29;13;8;4
73305;PMS5003;61530;51.158;0.880;2023-05-16T05:57:32;6;6;4
73305;PMS5003;61530;51.158;0.880;2023-05-16T05:58:38;10;8;5
73305;PMS5003;61530;51.158;0.880;2023-05-16T05:59:42;10;8;6
73305;PMS5003;61530;51.158;0.880;2023-05-16T06:00:45;12;10;6
73305;PMS5003;61530;51.158;0.880;2023-05-16T06:01:49;12;11;5
73305;PMS5003;61530;51.158;0.880;2023-05-16T06:02:54;6;6;4
73305;PMS5003;61530;51.158;0.880;2023-05-16T06:03:57;9;7;5
73305;PMS5003;61530;51.158;0.880;2023-05-16T06:05:01;8;7;4
73305;PMS5003;61530;51.158;0.880;2023-05-16T06:06:05;6;6;4
73305;PMS5003;61530;51.158;0.880;2023-05-16T06:07:10;6;6;5
73305;PMS5003;61530;51.158;0.880;2023-05-16T06:08:14;6;6;4
73305;PMS5003;61530;51.158;0.880;2023-05-16T06:09:17;10;10;5
73305;PMS5003;61530;51.158;0.880;2023-05-16T06:10:20;7;7;4
73305;PMS5003;61530;51.158;0.880;2023-05-16T06:11:26;7;4;3
73305;PMS5003;61530;51.158;0.880;2023-05-16T06:12:30;8;6;4
73305;PMS5003;61530;51.158;0.880;2023-05-16T06:13:33;6;6;4
73305;PMS5003;61530;51.158;0.880;2023-05-16T06:14:36;7;6;4
73305;PMS5003;61530;51.158;0.880;2023-05-16T06:15:42;7;7;4
73305;PMS5003;61530;51.158;0.880;2023-05-16T06:16:46;7;6;4
73305;PMS5003;61530;51.158;0.880;2023-05-16T06:17:49;7;7;5
73305;PMS5003;61530;51.158;0.880;2023-05-16T06:18:53;4;4;2
73305;PMS5003;61530;51.158;0.880;2023-05-16T06:19:58;4;4;3
73305;PMS5003;61530;51.158;0.880;2023-05-16T06:21:02;6;5;3
73305;PMS5003;61530;51.158;0.880;2023-05-16T06:22:05;7;7;4
73305;PMS5003;61530;51.158;0.880;2023-05-16T06:23:08;7;7;4
73305;PMS5003;61530;51.158;0.880;2023-05-16T06:24:14;9;7;3
73305;PMS5003;61530;51.158;0.880;2023-05-16T06:25:18;6;6;3
73305;PMS5003;61530;51.158;0.880;2023-05-16T06:26:21;8;6;3
73305;PMS5003;61530;51.158;0.880;2023-05-16T06:27:24;7;5;3
73305;PMS5003;61530;51.158;0.880;2023-05-16T06:28:30;8;6;4
73305;PMS5003;61530;51.158;0.880;2023-05-16T06:29:33;5;5;3
73305;PMS5003;61530;51.158;0.880;2023-05-16T06:30:37;11;6;4
73305;PMS5003;61530;51.158;0.880;2023-05-16T06:31:40;7;6;4
73305;PMS5003;61530;51.158;0.880;2023-05-16T06:32:46;6;6;3
73305;PMS5003;61530;51.158;0.880;2023-05-16T06:33:50;8;6;3
73305;PMS5003;61530;51.158;0.880;2023-05-16T06:34:53;12;6;4
73305;PMS5003;61530;51.158;0.880;2023-05-16T06:35:56;6;6;3
73305;PMS5003;61530;51.158;0.880;2023-05-16T06:37:02;5;4;2
73305;PMS5003;61530;51.158;0.880;2023-05-16T06:38:05;5;4;2
73305;PMS5003;61530;51.158;0.880;2023-05-16T06:39:09;7;6;3
73305;PMS5003;61530;51.158;0.880;2023-05-16T06:40:12;6;5;3
73305;PMS5003;61530;51.158;0.880;2023-05-16T06:41:18;5;5;3
73305;PMS5003;61530;51.158;0.880;2023-05-16T06:42:22;7;5;3
73305;PMS5003;61530;51.158;0.880;2023-05-16T06:43:25;5;5;2
73305;PMS5003;61530;51.158;0.880;2023-05-16T06:44:29;7;5;3
73305;PMS5003;61530;51.158;0.880;2023-05-16T06:45:34;4;4;3
73305;PMS5003;61530;51.158;0.880;2023-05-16T06:46:37;6;5;3
73305;PMS5003;61530;51.158;0.880;2023-05-16T06:47:41;5;4;2
73305;PMS5003;61530;51.158;0.880;2023-05-16T06:48:44;6;6;4
73305;PMS5003;61530;51.158;0.880;2023-05-16T06:49:50;4;4;3
73305;PMS5003;61530;51.158;0.880;2023-05-16T06:50:54;6;4;2
73305;PMS5003;61530;51.158;0.880;2023-05-16T06:51:57;5;5;4
73305;PMS5003;61530;51.158;0.880;2023-05-16T06:53:01;4;4;3
73305;PMS5003;61530;51.158;0.880;2023-05-16T06:54:06;7;5;4
73305;PMS5003;61530;51.158;0.880;2023-05-16T06:55:09;4;3;2
73305;PMS5003;61530;51.158;0.880;2023-05-16T06:56:13;6;6;3
73305;PMS5003;61530;51.158;0.880;2023-05-16T06:57:16;8;6;3
73305;PMS5003;61530;51.158;0.880;2023-05-16T06:58:22;6;5;3
73305;PMS5003;61530;51.158;0.880;2023-05-16T06:59:26;5;5;2
73305;PMS5003;61530;51.158;0.880;2023-05-16T07:00:29;5;4;3